Time;durP1;ratioP1;P1;durP2;ratioP2;P2;SDS_P1;SDS_P2;PMS_P1;PMS_P2;Temp;Humidity;BMP_temperature;BMP_pressure;BME280_temperature;BME280_humidity;BME280_pressure;Samples;Min_cycle;Max_cycle;Signal;HPM_P1;HPM_P2
2022/09/01 00:01:26;;;;;;;24.30;22.17;;;17.30;99.90;;;;;;5034406;28;20448;-69
2022/09/01 00:03:53;;;;;;;24.23;21.93;;;17.30;99.90;;;;;;5033043;28;20735;-69
2022/09/01 00:06:23;;;;;;;20.57;18.57;;;17.40;99.90;;;;;;5034184;28;20430;-69
2022/09/01 00:08:50;;;;;;;20.87;18.87;;;17.40;99.90;;;;;;5034091;28;20452;-69
2022/09/01 00:11:16;;;;;;;21.30;19.17;;;17.40;99.90;;;;;;5034508;28;20932;-69
2022/09/01 00:13:41;;;;;;;21.43;19.50;;;17.50;99.90;;;;;;5034482;28;20781;-69
2022/09/01 00:16:12;;;;;;;22.27;20.17;;;17.50;99.90;;;;;;5034139;28;20425;-69
2022/09/01 00:18:41;;;;;;;21.20;19.07;;;17.50;99.90;;;;;;5040261;28;20155;-69
2022/09/01 00:21:08;;;;;;;21.40;19.30;;;17.50;99.90;;;;;;5043146;28;20548;-70
2022/09/01 00:23:34;;;;;;;19.80;17.87;;;17.50;99.90;;;;;;5043277;28;20452;-71
2022/09/01 00:25:59;;;;;;;23.43;20.63;;;17.50;99.90;;;;;;5043921;28;20428;-70
2022/09/01 00:28:25;;;;;;;20.80;18.80;;;17.40;99.90;;;;;;5044868;28;20200;-70
2022/09/01 00:30:51;;;;;;;19.00;17.00;;;17.40;99.90;;;;;;5044398;28;20169;-69
2022/09/01 00:33:16;;;;;;;23.93;21.63;;;17.40;99.90;;;;;;5044186;28;20539;-70
2022/09/01 00:35:42;;;;;;;21.20;19.10;;;17.40;99.90;;;;;;5043251;28;20202;-70
2022/09/01 00:38:07;;;;;;;21.40;19.13;;;17.40;99.90;;;;;;5043133;28;20174;-70
2022/09/01 00:40:33;;;;;;;19.63;17.73;;;17.30;99.90;;;;;;5042241;28;20213;-70
2022/09/01 00:42:59;;;;;;;19.73;17.90;;;17.40;99.90;;;;;;5038044;28;20199;-69
2022/09/01 00:45:25;;;;;;;19.73;17.80;;;17.40;99.90;;;;;;5032558;28;20857;-70
2022/09/01 00:47:50;;;;;;;21.43;19.33;;;17.40;99.90;;;;;;5033328;28;20567;-70
2022/09/01 00:50:17;;;;;;;22.67;20.37;;;17.40;99.90;;;;;;5033036;28;20534;-69
2022/09/01 00:52:54;;;;;;;24.30;21.90;;;17.40;99.90;;;;;;5033192;28;20166;-70
2022/09/01 00:55:28;;;;;;;16.93;15.30;;;17.40;99.90;;;;;;5033276;28;20499;-70
2022/09/01 00:57:54;;;;;;;17.93;16.40;;;17.40;99.90;;;;;;5033438;28;20431;-69
2022/09/01 01:00:24;;;;;;;22.30;20.40;;;17.30;99.90;;;;;;5033298;28;20469;-70
2022/09/01 01:02:54;;;;;;;20.60;18.23;;;17.30;99.90;;;;;;5032844;28;20418;-69
2022/09/01 01:05:26;;;;;;;21.17;19.07;;;17.20;99.90;;;;;;5032387;28;20428;-69
2022/09/01 01:07:54;;;;;;;19.67;17.77;;;17.10;99.90;;;;;;5033061;28;20446;-69
2022/09/01 01:10:21;;;;;;;19.20;17.57;;;17.10;99.90;;;;;;5032863;28;20410;-69
2022/09/01 01:12:50;;;;;;;19.83;17.93;;;17.00;99.90;;;;;;5032870;28;20404;-69
2022/09/01 01:15:17;;;;;;;20.23;18.23;;;17.00;99.90;;;;;;5032918;28;20426;-69
2022/09/01 01:17:42;;;;;;;18.60;17.00;;;17.00;99.90;;;;;;5032765;28;20405;-70
2022/09/01 01:23:35;;;;;;;17.50;15.80;;;17.10;99.90;;;;;;5030150;28;20221;-69
2022/09/01 01:26:03;;;;;;;20.13;18.40;;;17.10;99.90;;;;;;5031595;28;20960;-69
2022/09/01 01:28:32;;;;;;;18.33;16.60;;;17.00;99.90;;;;;;5028848;28;20499;-70
2022/09/01 01:31:03;;;;;;;19.10;17.30;;;17.10;99.90;;;;;;5023733;28;20429;-69
2022/09/01 01:33:33;;;;;;;21.20;19.20;;;17.00;99.90;;;;;;5033281;28;20889;-69
2022/09/01 01:36:00;;;;;;;19.17;17.37;;;17.00;99.90;;;;;;5032870;28;20437;-69
2022/09/01 01:38:26;;;;;;;18.20;16.40;;;16.90;99.90;;;;;;5031547;28;20509;-69
2022/09/01 01:40:53;;;;;;;16.33;14.97;;;16.90;99.90;;;;;;5033200;28;20483;-69
2022/09/01 01:43:20;;;;;;;18.83;17.10;;;16.90;99.90;;;;;;5032638;28;20403;-69
2022/09/01 01:45:50;;;;;;;16.53;14.13;;;16.90;99.90;;;;;;5032311;28;20506;-69
2022/09/01 01:48:23;;;;;;;19.33;17.60;;;16.90;99.90;;;;;;5032589;28;20860;-68
2022/09/01 01:50:50;;;;;;;16.53;14.23;;;16.90;99.90;;;;;;5032537;28;20389;-69
2022/09/01 01:53:18;;;;;;;19.20;17.20;;;16.80;99.90;;;;;;5032555;28;20935;-70
2022/09/01 01:55:44;;;;;;;18.20;16.57;;;16.90;99.90;;;;;;5033338;28;20456;-69
2022/09/01 01:58:10;;;;;;;15.83;14.40;;;16.80;99.90;;;;;;5036612;28;20446;-69
2022/09/01 02:00:37;;;;;;;18.13;16.40;;;16.80;99.90;;;;;;5035805;28;20417;-69
2022/09/01 02:03:04;;;;;;;19.80;17.90;;;16.70;99.90;;;;;;5036679;28;20405;-69
2022/09/01 02:05:35;;;;;;;20.70;18.50;;;16.70;99.90;;;;;;5036594;28;20433;-70
2022/09/01 02:08:04;;;;;;;15.30;13.90;;;16.60;99.90;;;;;;5036308;28;20452;-69
2022/09/01 02:10:33;;;;;;;16.27;14.87;;;16.60;99.90;;;;;;5036253;28;20407;-69
2022/09/01 02:13:04;;;;;;;21.33;18.77;;;16.60;99.90;;;;;;5036213;28;20439;-70
2022/09/01 02:15:37;;;;;;;16.97;15.27;;;16.60;99.90;;;;;;5035622;28;20423;-68
2022/09/01 02:18:04;;;;;;;20.33;18.23;;;16.60;99.90;;;;;;5036236;28;20486;-70
2022/09/01 02:20:31;;;;;;;20.20;18.20;;;16.60;99.90;;;;;;5035988;28;20416;-70
2022/09/01 02:23:09;;;;;;;16.13;14.53;;;16.60;99.90;;;;;;5036172;28;20422;-69
2022/09/01 02:25:36;;;;;;;17.50;15.73;;;16.70;99.90;;;;;;5034486;28;21033;-69
2022/09/01 02:28:03;;;;;;;18.67;16.77;;;16.60;99.90;;;;;;5035788;28;20454;-69
2022/09/01 02:30:31;;;;;;;16.83;15.33;;;16.70;99.90;;;;;;5035601;28;20427;-69
2022/09/01 02:32:58;;;;;;;14.90;13.50;;;16.60;99.90;;;;;;5036008;28;20412;-69
2022/09/01 02:35:30;;;;;;;21.23;19.20;;;16.70;99.90;;;;;;5035366;28;20429;-70
2022/09/01 02:37:57;;;;;;;15.70;14.23;;;16.60;99.90;;;;;;5035689;28;20879;-69
2022/09/01 02:40:23;;;;;;;18.83;16.93;;;16.70;99.90;;;;;;5035495;28;20417;-69
2022/09/01 02:42:51;;;;;;;16.87;15.17;;;16.70;99.90;;;;;;5035376;28;20465;-69
2022/09/01 02:45:18;;;;;;;15.70;14.10;;;16.70;99.90;;;;;;5035784;28;20294;-69
2022/09/01 02:47:47;;;;;;;18.27;16.50;;;16.70;99.90;;;;;;5035545;28;20559;-69
2022/09/01 02:50:15;;;;;;;18.37;16.47;;;16.70;99.90;;;;;;5035007;28;20413;-69
2022/09/01 02:52:42;;;;;;;20.03;18.03;;;16.60;99.90;;;;;;5035253;28;20540;-69
2022/09/01 02:55:08;;;;;;;20.30;18.10;;;16.60;99.90;;;;;;5034537;28;20923;-68
2022/09/01 02:57:34;;;;;;;20.80;18.60;;;16.70;99.90;;;;;;5035314;28;20431;-68
2022/09/01 03:00:00;;;;;;;20.07;18.10;;;16.60;99.90;;;;;;5035017;28;20470;-69
2022/09/01 03:02:27;;;;;;;20.67;16.90;;;16.60;99.90;;;;;;5035547;28;20253;-69
2022/09/01 03:04:57;;;;;;;19.17;17.17;;;16.60;99.90;;;;;;5035389;28;20801;-69
2022/09/01 03:07:24;;;;;;;18.70;16.90;;;16.70;99.90;;;;;;5034240;28;20782;-69
2022/09/01 03:09:51;;;;;;;20.43;18.43;;;16.70;99.90;;;;;;5034897;28;20955;-69
2022/09/01 03:12:17;;;;;;;21.27;19.23;;;16.70;99.90;;;;;;5035059;28;20458;-69
2022/09/01 03:14:42;;;;;;;22.43;18.77;;;16.60;99.90;;;;;;5035311;28;20832;-69
2022/09/01 03:17:08;;;;;;;21.73;19.20;;;16.70;99.90;;;;;;5034371;28;20179;-69
2022/09/01 03:19:39;;;;;;;24.93;21.90;;;16.70;99.90;;;;;;5034033;28;20199;-69
2022/09/01 03:22:04;;;;;;;25.40;22.73;;;16.60;99.90;;;;;;5035134;28;20165;-70
2022/09/01 03:24:31;;;;;;;22.17;19.87;;;16.50;99.90;;;;;;5034000;28;20431;-69
2022/09/01 03:26:56;;;;;;;20.33;18.43;;;16.50;99.90;;;;;;5033343;28;20265;-69
2022/09/01 03:29:22;;;;;;;25.37;22.83;;;16.50;99.90;;;;;;5035010;28;20549;-69
2022/09/01 03:31:48;;;;;;;19.80;17.87;;;16.50;99.90;;;;;;5034486;28;20594;-69
2022/09/01 03:34:19;;;;;;;20.33;18.33;;;16.40;99.90;;;;;;5034532;28;20176;-69
2022/09/01 03:36:49;;;;;;;22.20;20.10;;;16.50;99.90;;;;;;5032231;28;20449;-69
2022/09/01 03:39:16;;;;;;;22.87;20.57;;;16.40;99.90;;;;;;5034505;28;20964;-69
2022/09/01 03:41:43;;;;;;;21.90;19.83;;;16.30;99.90;;;;;;5034216;28;20909;-69
2022/09/01 03:44:10;;;;;;;21.83;19.63;;;16.20;99.90;;;;;;5034602;28;20403;-69
2022/09/01 03:46:36;;;;;;;24.87;22.33;;;16.10;99.90;;;;;;5033017;28;20948;-69
2022/09/01 03:49:06;;;;;;;28.00;25.20;;;16.10;99.90;;;;;;5034216;28;20460;-69
2022/09/01 03:51:31;;;;;;;24.77;22.27;;;16.10;99.90;;;;;;5034190;28;20405;-69
2022/09/01 03:53:58;;;;;;;22.97;20.80;;;16.20;99.90;;;;;;5034051;28;20488;-69
2022/09/01 03:56:26;;;;;;;23.57;21.17;;;16.10;99.90;;;;;;5033549;28;20221;-69
2022/09/01 03:58:57;;;;;;;19.70;17.60;;;16.10;99.90;;;;;;5034028;28;20540;-69
2022/09/01 04:01:24;;;;;;;23.43;21.13;;;16.10;99.90;;;;;;5032844;28;20406;-70
2022/09/01 04:03:50;;;;;;;25.60;23.00;;;16.10;99.90;;;;;;5033906;28;20434;-69
2022/09/01 04:06:18;;;;;;;23.63;21.17;;;16.10;99.90;;;;;;5033629;28;20427;-69
2022/09/01 04:08:45;;;;;;;23.20;20.77;;;16.00;99.90;;;;;;5032573;28;20983;-69
2022/09/01 04:11:17;;;;;;;20.97;19.03;;;16.00;99.90;;;;;;5035216;28;20403;-69
2022/09/01 04:13:43;;;;;;;22.03;19.70;;;16.00;99.90;;;;;;5034272;28;20390;-69
2022/09/01 04:19:14;;;;;;;21.80;19.70;;;15.90;99.90;;;;;;5034018;28;20886;-69
2022/09/01 04:21:41;;;;;;;24.87;22.37;;;15.90;99.90;;;;;;5027029;28;20491;-69
2022/09/01 04:24:08;;;;;;;21.60;19.37;;;16.00;99.90;;;;;;5028786;28;20421;-69
2022/09/01 04:26:33;;;;;;;24.43;21.83;;;15.90;99.90;;;;;;5033329;28;20504;-70
2022/09/01 04:28:59;;;;;;;23.23;20.93;;;15.90;99.90;;;;;;5048383;28;20465;-69
2022/09/01 04:31:25;;;;;;;20.60;18.60;;;15.80;99.90;;;;;;5034916;28;20169;-69
2022/09/01 04:33:51;;;;;;;25.97;23.10;;;15.80;99.90;;;;;;5033096;28;20418;-70
2022/09/01 04:36:24;;;;;;;24.17;21.83;;;15.80;99.90;;;;;;5032771;28;20188;-69
2022/09/01 04:38:57;;;;;;;22.83;20.37;;;15.80;99.90;;;;;;5033529;28;20404;-69
2022/09/01 04:41:26;;;;;;;28.00;25.27;;;15.80;99.90;;;;;;5032115;28;20468;-69
2022/09/01 04:43:55;;;;;;;22.17;19.97;;;15.80;99.90;;;;;;5032840;28;20524;-69
2022/09/01 04:46:22;;;;;;;22.73;20.40;;;15.80;99.90;;;;;;5032750;28;20428;-70
2022/09/01 04:48:51;;;;;;;19.43;17.53;;;15.80;99.90;;;;;;5033248;28;20453;-70
2022/09/01 04:51:18;;;;;;;19.33;17.43;;;15.80;99.90;;;;;;5031752;28;20473;-69
2022/09/01 04:53:47;;;;;;;22.10;19.90;;;15.80;99.90;;;;;;5033740;28;20437;-70
2022/09/01 04:56:17;;;;;;;25.33;22.80;;;15.80;99.90;;;;;;5032919;28;20491;-69
2022/09/01 04:58:42;;;;;;;22.70;20.40;;;15.80;99.90;;;;;;5033052;28;20409;-70
2022/09/01 05:01:16;;;;;;;23.70;21.20;;;15.80;99.90;;;;;;5033585;28;20474;-69
2022/09/01 05:03:42;;;;;;;19.30;17.30;;;15.80;99.90;;;;;;5032826;28;20171;-70
2022/09/01 05:06:16;;;;;;;21.37;19.10;;;15.90;99.90;;;;;;5032698;28;20485;-70
2022/09/01 05:08:44;;;;;;;26.43;23.20;;;15.90;99.90;;;;;;5032992;28;20801;-70
2022/09/01 05:11:13;;;;;;;26.67;23.37;;;16.00;99.90;;;;;;5032161;28;20489;-70
2022/09/01 05:13:39;;;;;;;23.40;21.20;;;15.80;99.90;;;;;;5033234;28;20413;-70
2022/09/01 05:16:11;;;;;;;23.80;21.40;;;15.90;99.90;;;;;;5032927;28;20416;-70
2022/09/01 05:18:39;;;;;;;21.67;19.57;;;16.00;99.90;;;;;;5033044;28;20152;-69
2022/09/01 05:21:09;;;;;;;21.50;19.50;;;16.10;99.90;;;;;;5032569;28;20416;-69
2022/09/01 05:23:37;;;;;;;27.90;22.47;;;16.20;99.90;;;;;;5032454;28;20396;-69
2022/09/01 05:26:05;;;;;;;23.60;21.27;;;16.20;99.90;;;;;;5030986;28;20952;-69
2022/09/01 05:28:30;;;;;;;25.20;22.60;;;16.30;99.90;;;;;;5032883;28;20465;-70
2022/09/01 05:31:00;;;;;;;20.70;18.77;;;16.30;99.90;;;;;;5034509;28;20759;-70
2022/09/01 05:33:26;;;;;;;19.17;17.20;;;16.30;99.90;;;;;;5036400;28;20176;-70
2022/09/01 05:35:55;;;;;;;20.80;18.80;;;16.30;99.90;;;;;;5034316;28;20451;-70
2022/09/01 05:38:24;;;;;;;21.50;19.30;;;16.40;99.90;;;;;;5037100;28;20259;-69
2022/09/01 05:41:03;;;;;;;23.73;21.53;;;16.50;99.90;;;;;;5037038;28;20419;-70
2022/09/01 05:43:29;;;;;;;25.03;22.63;;;16.40;99.90;;;;;;5036094;28;20432;-69
2022/09/01 05:45:57;;;;;;;22.40;20.30;;;16.30;99.90;;;;;;5036965;28;20779;-69
2022/09/01 05:48:23;;;;;;;21.97;19.93;;;16.30;99.90;;;;;;5036665;28;20807;-69
2022/09/01 05:50:51;;;;;;;21.90;19.87;;;16.30;99.90;;;;;;5037013;28;20409;-69
2022/09/01 05:53:17;;;;;;;20.33;18.23;;;16.30;99.90;;;;;;5036302;28;20408;-69
2022/09/01 05:55:45;;;;;;;20.53;18.30;;;16.40;99.90;;;;;;5060873;22;20469;-69
2022/09/01 05:58:12;;;;;;;19.33;17.60;;;16.50;99.90;;;;;;5036423;28;20257;-69
2022/09/01 06:00:41;;;;;;;22.13;20.00;;;16.50;99.90;;;;;;5036608;28;20966;-69
2022/09/01 06:03:08;;;;;;;23.17;20.83;;;16.60;99.90;;;;;;5035516;28;20825;-69
2022/09/01 06:05:35;;;;;;;23.57;21.37;;;16.60;99.90;;;;;;5036844;28;20477;-69
2022/09/01 06:08:04;;;;;;;21.27;19.07;;;16.60;99.90;;;;;;5036364;28;20444;-69
2022/09/01 06:10:31;;;;;;;21.40;19.40;;;16.70;99.90;;;;;;5036668;28;20418;-69
2022/09/01 06:13:01;;;;;;;22.07;19.97;;;16.70;99.90;;;;;;5035590;28;20417;-69
2022/09/01 06:15:31;;;;;;;22.90;20.60;;;16.80;99.90;;;;;;5036428;28;20408;-69
2022/09/01 06:17:57;;;;;;;22.40;20.33;;;16.90;99.90;;;;;;5036622;28;20410;-69
2022/09/01 06:20:24;;;;;;;22.17;19.93;;;17.00;99.90;;;;;;5036297;28;20409;-69
2022/09/01 06:22:51;;;;;;;21.37;19.23;;;17.20;99.90;;;;;;5036571;28;20438;-69
2022/09/01 06:25:17;;;;;;;19.93;18.03;;;17.40;99.90;;;;;;5036184;28;20398;-69
2022/09/01 06:27:44;;;;;;;21.07;18.97;;;17.60;99.90;;;;;;5035921;28;20811;-68
2022/09/01 06:30:16;;;;;;;22.10;19.70;;;17.80;99.90;;;;;;5036322;28;20747;-70
2022/09/01 06:32:43;;;;;;;22.67;20.50;;;18.00;99.90;;;;;;5035626;28;20741;-68
2022/09/01 06:35:14;;;;;;;22.10;20.03;;;18.20;99.90;;;;;;5035729;28;20903;-71
2022/09/01 06:37:42;;;;;;;23.30;21.10;;;18.30;99.90;;;;;;5018467;28;20439;-69
2022/09/01 06:40:15;;;;;;;20.00;18.20;;;18.40;99.90;;;;;;5035846;28;20390;-69
2022/09/01 06:42:42;;;;;;;21.70;19.70;;;18.50;99.90;;;;;;5034314;28;20493;-69
2022/09/01 06:45:09;;;;;;;20.77;18.27;;;18.60;99.90;;;;;;5035628;28;20965;-69
2022/09/01 06:47:35;;;;;;;21.77;19.67;;;18.60;99.90;;;;;;5035747;28;20460;-69
2022/09/01 06:50:01;;;;;;;21.03;19.13;;;18.60;99.90;;;;;;5035802;28;20502;-69
2022/09/01 06:52:27;;;;;;;19.80;17.70;;;18.70;99.90;;;;;;5035822;28;20430;-69
2022/09/01 06:54:53;;;;;;;23.87;21.37;;;18.50;99.90;;;;;;5035868;28;20406;-69
2022/09/01 06:57:20;;;;;;;19.90;18.00;;;18.60;99.90;;;;;;5035143;28;20217;-69
2022/09/01 06:59:46;;;;;;;25.13;22.43;;;18.70;99.90;;;;;;5035565;28;20919;-68
2022/09/01 07:02:15;;;;;;;19.47;17.67;;;18.50;99.90;;;;;;5035244;28;20402;-70
2022/09/01 07:04:43;;;;;;;20.83;18.87;;;18.80;99.90;;;;;;5034171;28;20505;-69
2022/09/01 07:07:09;;;;;;;23.43;21.13;;;18.80;99.90;;;;;;5035678;28;20872;-69
2022/09/01 07:09:35;;;;;;;19.97;18.00;;;18.90;99.90;;;;;;5034217;28;20438;-68
2022/09/01 07:12:02;;;;;;;20.27;18.00;;;19.10;99.90;;;;;;5035426;28;20406;-69
2022/09/01 07:14:29;;;;;;;20.20;18.20;;;19.20;99.90;;;;;;5028490;28;20761;-69
2022/09/01 07:16:56;;;;;;;20.30;18.20;;;18.80;99.90;;;;;;5032251;28;20442;-69
2022/09/01 07:19:24;;;;;;;20.30;18.30;;;18.40;99.90;;;;;;5017757;28;20408;-68
2022/09/01 07:21:51;;;;;;;20.30;18.30;;;18.50;99.90;;;;;;5033922;28;20420;-69
2022/09/01 07:24:19;;;;;;;22.57;20.43;;;18.50;99.90;;;;;;5035194;28;20435;-69
2022/09/01 07:26:52;;;;;;;20.90;18.70;;;18.70;99.90;;;;;;5035140;28;20426;-69
2022/09/01 07:29:18;;;;;;;19.00;17.23;;;18.70;99.90;;;;;;5034251;28;20528;-69
2022/09/01 07:31:44;;;;;;;20.00;18.20;;;18.70;99.90;;;;;;5035136;28;20412;-70
2022/09/01 07:34:13;;;;;;;18.47;16.80;;;19.00;99.90;;;;;;5034863;28;20481;-70
2022/09/01 07:36:41;;;;;;;18.60;16.73;;;19.10;99.90;;;;;;5034084;28;20223;-70
2022/09/01 07:39:08;;;;;;;15.67;14.27;;;19.30;99.90;;;;;;5034667;28;20410;-70
2022/09/01 07:41:34;;;;;;;15.17;13.70;;;19.10;99.90;;;;;;5016144;28;20422;-69
2022/09/01 07:44:02;;;;;;;17.73;16.03;;;18.70;99.90;;;;;;5034710;28;20406;-70
2022/09/01 07:46:31;;;;;;;16.50;15.00;;;18.80;99.90;;;;;;5034918;28;20666;-68
2022/09/01 07:48:57;;;;;;;16.50;15.00;;;18.90;99.90;;;;;;5034933;28;20445;-69
2022/09/01 07:51:25;;;;;;;15.40;14.10;;;19.30;99.90;;;;;;5033858;28;20437;-69
2022/09/01 07:53:51;;;;;;;15.97;14.50;;;19.70;99.90;;;;;;5034036;28;20402;-68
2022/09/01 07:56:21;;;;;;;16.13;14.73;;;19.70;99.90;;;;;;5034671;28;20433;-70
2022/09/01 07:58:49;;;;;;;15.00;13.60;;;19.70;99.90;;;;;;5033348;28;20441;-69
2022/09/01 08:01:20;;;;;;;15.60;14.10;;;19.80;99.90;;;;;;5034341;28;20496;-69
2022/09/01 08:03:50;;;;;;;14.40;13.10;;;19.80;99.90;;;;;;5033471;28;20418;-69
2022/09/01 08:06:19;;;;;;;15.63;14.07;;;19.60;99.90;;;;;;5034300;28;20426;-69
2022/09/01 08:08:49;;;;;;;14.07;12.87;;;19.70;99.90;;;;;;5033283;28;20519;-69
2022/09/01 08:11:23;;;;;;;15.13;13.83;;;19.80;99.90;;;;;;5034070;28;20877;-68
2022/09/01 08:13:49;;;;;;;15.60;14.20;;;19.70;99.90;;;;;;5033689;28;20897;-69
2022/09/01 08:16:15;;;;;;;15.37;13.97;;;19.60;99.90;;;;;;5033995;28;20426;-69
2022/09/01 08:18:41;;;;;;;15.03;13.63;;;19.90;99.90;;;;;;5034293;28;20410;-69
2022/09/01 08:21:10;;;;;;;14.07;12.93;;;19.70;99.90;;;;;;5034285;28;20175;-68
2022/09/01 08:23:36;;;;;;;13.13;11.90;;;19.50;99.90;;;;;;5034018;28;20413;-68
2022/09/01 08:26:12;;;;;;;13.57;12.37;;;19.80;99.90;;;;;;5034069;28;20796;-69
2022/09/01 08:28:39;;;;;;;12.30;11.27;;;20.00;99.90;;;;;;5034027;28;20179;-68
2022/09/01 08:31:10;;;;;;;12.23;10.90;;;20.20;99.90;;;;;;5033841;28;20411;-69
2022/09/01 08:33:40;;;;;;;12.67;11.57;;;20.50;99.90;;;;;;5034669;28;20394;-69
2022/09/01 08:36:08;;;;;;;11.93;10.83;;;20.40;99.90;;;;;;5033627;28;20430;-68
2022/09/01 08:38:34;;;;;;;13.40;12.10;;;20.30;99.90;;;;;;5033642;28;20409;-68
2022/09/01 08:41:02;;;;;;;11.17;10.20;;;20.00;99.90;;;;;;5034964;28;21049;-70
2022/09/01 08:43:36;;;;;;;12.47;11.20;;;20.20;99.90;;;;;;5034709;28;20164;-69
2022/09/01 08:46:12;;;;;;;10.50;9.50;;;20.30;99.90;;;;;;5034667;28;20843;-70
2022/09/01 08:48:40;;;;;;;12.10;10.80;;;20.00;99.90;;;;;;5033887;28;20490;-69
2022/09/01 08:51:18;;;;;;;12.13;11.03;;;20.40;99.90;;;;;;5033838;28;20482;-68
2022/09/01 08:53:50;;;;;;;11.43;10.33;;;20.60;99.90;;;;;;5033457;28;20398;-68
2022/09/01 08:56:17;;;;;;;12.60;11.50;;;20.70;99.90;;;;;;5033505;28;20448;-69
2022/09/01 08:58:43;;;;;;;10.93;9.80;;;20.90;99.90;;;;;;5033564;28;20763;-68
2022/09/01 09:01:20;;;;;;;10.90;10.00;;;20.90;99.90;;;;;;5033435;28;20417;-68
2022/09/01 09:04:09;;;;;;;11.67;10.67;;;21.20;99.90;;;;;;5032655;28;20267;-69
2022/09/01 09:06:42;;;;;;;10.93;9.93;;;21.40;99.90;;;;;;5032529;28;20458;-69
2022/09/01 09:09:08;;;;;;;11.97;9.70;;;21.40;99.90;;;;;;5033357;28;20919;-68
2022/09/01 09:11:45;;;;;;;10.03;9.03;;;21.20;99.90;;;;;;5032400;28;20422;-69
2022/09/01 09:14:22;;;;;;;10.20;9.17;;;21.20;99.90;;;;;;5033177;28;20382;-69
2022/09/01 09:16:52;;;;;;;11.40;10.00;;;21.20;99.90;;;;;;5033334;28;21004;-69
2022/09/01 09:19:33;;;;;;;9.23;8.53;;;21.50;99.90;;;;;;5032739;28;20463;-69
2022/09/01 09:22:03;;;;;;;9.50;8.67;;;21.60;99.90;;;;;;5032932;28;20404;-68
2022/09/01 09:25:11;;;;;;;8.50;7.67;;;21.30;99.90;;;;;;5032851;28;20435;-68
2022/09/01 09:27:39;;;;;;;8.40;7.70;;;21.40;99.90;;;;;;5033293;28;20422;-68
2022/09/01 09:30:10;;;;;;;10.53;9.30;;;21.70;99.90;;;;;;5033284;28;20417;-70
2022/09/01 09:32:59;;;;;;;10.50;9.60;;;21.80;99.90;;;;;;5033207;28;20767;-69
2022/09/01 09:35:35;;;;;;;10.13;9.23;;;21.30;99.90;;;;;;5032854;28;20414;-68
2022/09/01 09:38:31;;;;;;;10.07;9.20;;;21.20;99.90;;;;;;5033633;28;20388;-69
2022/09/01 09:41:04;;;;;;;10.30;9.30;;;21.40;99.90;;;;;;5014750;28;20760;-70
2022/09/01 09:43:35;;;;;;;9.30;8.47;;;21.10;99.90;;;;;;5013409;28;20419;-69
2022/09/01 09:46:42;;;;;;;9.80;8.80;;;21.00;99.90;;;;;;5013388;28;20441;-69
2022/09/01 09:49:28;;;;;;;8.90;8.20;;;21.80;99.90;;;;;;4933473;29;20458;-68
2022/09/01 09:52:16;;;;;;;8.80;8.00;;;21.90;99.90;;;;;;4933467;29;20433;-70
2022/09/01 09:55:02;;;;;;;8.93;8.13;;;22.00;99.90;;;;;;4995214;28;20411;-68
2022/09/01 09:57:30;;;;;;;8.87;8.07;;;22.50;99.90;;;;;;4995375;28;20422;-69
2022/09/01 10:00:17;;;;;;;8.10;7.30;;;22.70;99.90;;;;;;5012952;28;20431;-69
2022/09/01 10:02:45;;;;;;;8.80;8.03;;;22.40;99.90;;;;;;5013554;28;20426;-69
2022/09/01 10:05:40;;;;;;;8.27;7.47;;;22.30;99.90;;;;;;5026651;28;20418;-69
2022/09/01 10:08:10;;;;;;;6.37;5.87;;;22.70;99.90;;;;;;5020557;28;20497;-68
2022/09/01 10:10:42;;;;;;;7.40;6.70;;;22.80;99.90;;;;;;5033049;28;20402;-69
2022/09/01 10:13:16;;;;;;;7.10;6.60;;;22.80;99.90;;;;;;5031704;28;20854;-68
2022/09/01 10:15:50;;;;;;;6.37;5.90;;;22.70;99.90;;;;;;5032717;28;20418;-70
2022/09/01 10:18:20;;;;;;;6.20;5.73;;;23.00;99.90;;;;;;5035404;28;20456;-69
2022/09/01 10:20:55;;;;;;;6.87;6.37;;;22.80;99.90;;;;;;5036353;28;20812;-69
2022/09/01 10:23:20;;;;;;;7.00;6.40;;;22.90;99.90;;;;;;5036690;28;20452;-69
2022/09/01 10:25:49;;;;;;;6.53;6.00;;;22.60;99.90;;;;;;5036412;28;20430;-69
2022/09/01 10:28:20;;;;;;;6.30;5.80;;;22.60;99.90;;;;;;5035807;28;20756;-69
2022/09/01 10:30:46;;;;;;;6.37;5.87;;;22.70;99.90;;;;;;5036888;28;20407;-69
2022/09/01 10:33:15;;;;;;;7.17;6.37;;;22.90;99.90;;;;;;5036014;28;20398;-69
2022/09/01 10:35:44;;;;;;;5.63;5.23;;;22.90;99.90;;;;;;5036263;28;20972;-69
2022/09/01 10:38:24;;;;;;;5.97;5.40;;;22.60;99.90;;;;;;5036336;28;20460;-69
2022/09/01 10:41:06;;;;;;;6.43;5.83;;;22.70;99.90;;;;;;5036616;28;20390;-69
2022/09/01 10:43:34;;;;;;;5.50;5.00;;;23.10;99.90;;;;;;5034714;28;20493;-69
2022/09/01 10:46:17;;;;;;;5.83;5.30;;;23.50;99.90;;;;;;5035948;28;20521;-69
2022/09/01 10:48:43;;;;;;;5.40;4.93;;;23.50;99.90;;;;;;5036014;28;20437;-69
2022/09/01 10:51:14;;;;;;;5.50;5.00;;;24.00;99.90;;;;;;5035739;28;20413;-70
2022/09/01 10:54:01;;;;;;;4.73;4.17;;;24.30;99.90;;;;;;5035944;28;20532;-69
2022/09/01 10:56:46;;;;;;;4.47;4.13;;;25.40;99.90;;;;;;5035468;28;20931;-69
2022/09/01 10:59:24;;;;;;;4.03;3.70;;;26.00;99.10;;;;;;5035552;28;20416;-69
2022/09/01 11:01:49;;;;;;;5.10;4.60;;;25.60;99.20;;;;;;5035496;28;20402;-69
2022/09/01 11:04:17;;;;;;;4.00;3.70;;;26.00;98.60;;;;;;5034728;28;20429;-69
2022/09/01 11:07:00;;;;;;;4.10;3.80;;;25.70;99.90;;;;;;5035220;28;20258;-69
2022/09/01 11:09:41;;;;;;;4.93;4.53;;;26.30;98.50;;;;;;5017566;28;20865;-68
2022/09/01 11:12:28;;;;;;;4.20;3.80;;;25.40;99.70;;;;;;5035281;28;20386;-69
2022/09/01 11:14:59;;;;;;;4.67;4.27;;;24.70;99.90;;;;;;5035490;28;20421;-69
2022/09/01 11:17:54;;;;;;;5.47;5.00;;;23.90;99.90;;;;;;5017485;28;20406;-69
2022/09/01 11:20:28;;;;;;;6.10;5.60;;;23.80;99.90;;;;;;5034804;28;20390;-69
2022/09/01 11:23:01;;;;;;;5.40;4.90;;;23.30;99.90;;;;;;5036242;28;20893;-69
2022/09/01 11:25:43;;;;;;;5.87;5.37;;;23.60;99.90;;;;;;5035170;28;20513;-70
2022/09/01 11:28:09;;;;;;;5.57;5.17;;;23.60;99.90;;;;;;5034200;28;20433;-69
2022/09/01 11:30:40;;;;;;;5.60;4.37;;;24.50;99.90;;;;;;5035152;28;20416;-70
2022/09/01 11:33:15;;;;;;;5.80;5.13;;;25.00;99.90;;;;;;5035014;28;20385;-70
2022/09/01 11:35:44;;;;;;;4.87;4.47;;;25.40;99.90;;;;;;5033773;28;20418;-68
2022/09/01 11:38:13;;;;;;;5.10;4.43;;;26.60;99.90;;;;;;5034753;28;20406;-68
2022/09/01 11:40:40;;;;;;;6.70;4.10;;;28.00;96.90;;;;;;5034808;28;20410;-68
2022/09/01 11:43:16;;;;;;;4.77;4.37;;;28.00;96.10;;;;;;5034646;28;20410;-69
2022/09/01 11:46:06;;;;;;;4.10;3.80;;;27.00;96.90;;;;;;5034643;28;20430;-68
2022/09/01 11:48:31;;;;;;;4.27;3.97;;;27.70;96.10;;;;;;5034556;28;20484;-68
2022/09/01 11:51:00;;;;;;;4.67;4.30;;;27.10;95.90;;;;;;5034191;28;20471;-68
2022/09/01 11:53:27;;;;;;;6.80;4.47;;;25.60;97.90;;;;;;5028573;28;20242;-68
2022/09/01 11:55:56;;;;;;;4.50;4.10;;;25.00;99.10;;;;;;5053877;22;20497;-70
2022/09/01 11:58:27;;;;;;;4.63;4.23;;;24.60;99.80;;;;;;5014481;28;20449;-68
2022/09/01 12:01:18;;;;;;;4.63;4.23;;;24.60;99.90;;;;;;5014438;28;20473;-68
2022/09/01 12:03:45;;;;;;;4.60;4.20;;;26.00;98.70;;;;;;5014621;28;20469;-69
2022/09/01 12:06:19;;;;;;;4.57;4.10;;;27.40;96.90;;;;;;5006967;28;20518;-69
2022/09/01 12:08:57;;;;;;;4.07;3.67;;;28.90;93.60;;;;;;4994486;28;20474;-68
2022/09/01 12:11:30;;;;;;;3.70;3.40;;;29.70;91.80;;;;;;4993908;28;20437;-68
2022/09/01 12:14:08;;;;;;;3.47;3.17;;;30.00;90.80;;;;;;4995943;28;20784;-69
2022/09/01 12:16:40;;;;;;;4.43;4.10;;;30.70;87.00;;;;;;5002023;28;20431;-69
2022/09/01 12:19:07;;;;;;;4.20;3.80;;;29.90;88.40;;;;;;5002781;28;20408;-68
2022/09/01 12:21:41;;;;;;;4.30;3.57;;;30.10;88.10;;;;;;4993958;28;20419;-69
2022/09/01 12:24:20;;;;;;;3.70;3.40;;;31.80;84.30;;;;;;4994995;28;20379;-69
2022/09/01 12:26:48;;;;;;;3.30;3.10;;;32.50;80.40;;;;;;4994071;28;20765;-68
2022/09/01 12:29:15;;;;;;;3.23;3.03;;;32.70;76.20;;;;;;4994043;28;20447;-69
2022/09/01 12:31:43;;;;;;;3.83;3.50;;;31.70;77.10;;;;;;4994327;28;20774;-69
2022/09/01 12:34:31;;;;;;;3.63;3.33;;;31.80;78.50;;;;;;4994076;28;20407;-69
2022/09/01 12:37:21;;;;;;;3.80;3.60;;;30.80;80.50;;;;;;4993537;28;20424;-68
2022/09/01 12:39:51;;;;;;;4.20;3.90;;;29.80;83.10;;;;;;4994452;28;20432;-69
2022/09/01 12:42:20;;;;;;;4.17;3.87;;;26.70;90.90;;;;;;4993929;28;20430;-68
2022/09/01 12:44:49;;;;;;;3.97;3.67;;;25.70;93.90;;;;;;4994222;28;20991;-68
2022/09/01 12:47:37;;;;;;;5.17;4.77;;;25.20;95.80;;;;;;4995073;28;20440;-69
2022/09/01 12:50:06;;;;;;;4.57;4.20;;;24.60;96.60;;;;;;4993907;28;20458;-69
2022/09/01 12:52:43;;;;;;;3.80;3.50;;;24.30;97.80;;;;;;4992410;28;20487;-69
2022/09/01 12:55:17;;;;;;;4.67;4.27;;;24.40;97.80;;;;;;4994212;28;20380;-69